Preston Hill, Pennsylvania
Current Conditions -  °F | °C
As of 5:55 PM on Tuesday 27 Jan 2015 (Local Time) from KHZL Reporting Station
Clear Clear  
Wind Chill:   Ceiling: Unl
Heat Index: 19°   Visibility: 10mi
Dew Point:   Wind: 20mph
Humidity: 54%   Direction: 320°NW
Pressure: 29.76"   Gusts: 25mph
Location:  40.7904°N, 76.2898°W
Report Text: KHZL 272255Z AUTO 32017G22KT 10SM CLR M07/M15 A2976 RMK AO2
Loading
Personal Weather Stations






























Interactive Weather Map New forecast layout! Learn more

10-Day Weather Forecast

Advertisements
Track Severe Weather on mobile